»·PEaware :: N786E KBUR-KFUL

N786E :: KBUR-KFUL

FLIGHT INFORMATION

Flight Status: Arrived
Operator: Privately registered:
United States
More flights under this callsign
Pilot: John S. (15571)
Aircraft: ROCKWELL 500 SHRIKE COMMANDER
(AC50)
More flights by this aircraft type
Origin: KBUR Bob Hope-Burbank
United States
Destination: KFUL Fullerton Mun
United States
More flights between these airports :: More routes between these airports
Route: KBUR VPLRB KEMT VPLSC KFUL
File this flight plan on PilotEdge
Remarks: CAT 9
Altitude:
(Current/Filed)
3,500ft
Speed:
(Current/Filed)
140kts
Departed: 06-Jul-17 01:59 PM
Arrived: 06-Jul-17 02:20 PM
Distance/Time
Traveled:
27nm/0:21
Distance/Time
To Go:
Arrived

Flight Plot

Page will automatically refresh every two minutes.

Flight plan parsing failed; only flown route is shown


Map Options




Map Legend


Flown Route
Filed Route
Departure Airport
Arrival Airport
Navaid (VOR, NDB)
Fix

Horizontal Profiles

Position Reports

Time Latitude Longitude Heading Altitude Ground
Speed
06-Jul-17 13:30 34.196339 -118.367571 358 721ft 0kts
06-Jul-17 13:31 34.196339 -118.367571 358 721ft 0kts
06-Jul-17 13:32 34.196339 -118.367571 358 721ft 0kts
06-Jul-17 13:33 34.196339 -118.367571 358 721ft 0kts
06-Jul-17 13:34 34.196339 -118.367571 358 721ft 0kts
06-Jul-17 13:35 34.196339 -118.367571 358 721ft 0kts
06-Jul-17 13:36 34.196339 -118.367571 358 721ft 0kts
06-Jul-17 13:37 34.196339 -118.367571 358 721ft 0kts
06-Jul-17 13:38 34.196339 -118.367571 358 721ft 0kts
06-Jul-17 13:39 34.196339 -118.367571 358 721ft 0kts
06-Jul-17 13:40 34.196339 -118.367571 358 721ft 0kts
06-Jul-17 13:41 34.196339 -118.367571 358 721ft 0kts
06-Jul-17 13:42 34.196339 -118.367571 358 721ft 0kts
06-Jul-17 13:43 34.196339 -118.367571 358 721ft 0kts
06-Jul-17 13:44 34.196339 -118.367571 358 721ft 0kts
06-Jul-17 13:45 34.196339 -118.367571 358 721ft 0kts
06-Jul-17 13:46 34.196339 -118.367571 358 721ft 0kts
06-Jul-17 13:47 34.196339 -118.367571 358 721ft 0kts
06-Jul-17 13:48 34.196339 -118.367571 358 721ft 0kts
06-Jul-17 13:49 34.196339 -118.367571 358 721ft 0kts
06-Jul-17 13:50 34.196339 -118.367571 358 721ft 0kts
06-Jul-17 13:51 34.196359 -118.367571 358 721ft 0kts
06-Jul-17 13:52 34.196359 -118.367571 358 721ft 0kts
06-Jul-17 13:53 34.196359 -118.367571 358 721ft 0kts
06-Jul-17 13:54 34.196359 -118.367571 358 721ft 0kts
06-Jul-17 13:55 34.196359 -118.367571 358 721ft 0kts
06-Jul-17 13:56 34.196359 -118.367571 358 721ft 0kts
06-Jul-17 13:57 34.196359 -118.367571 358 721ft 0kts
06-Jul-17 13:58 34.196359 -118.367571 358 721ft 0kts
06-Jul-17 13:59 34.196364 -118.367571 358 721ft 1kts
06-Jul-17 14:00 34.196900 -118.368541 271 722ft 20kts
06-Jul-17 14:01 34.197135 -118.369051 334 723ft 0kts
06-Jul-17 14:02 34.197880 -118.367146 91 724ft 52kts
06-Jul-17 14:03 34.197827 -118.349143 92 1179ft 112kts
06-Jul-17 14:04 34.197549 -118.325555 91 2049ft 111kts
06-Jul-17 14:05 34.197072 -118.299206 110 2828ft 119kts
06-Jul-17 14:06 34.187249 -118.273284 110 3541ft 133kts
06-Jul-17 14:07 34.177704 -118.239400 110 3472ft 175kts
06-Jul-17 14:08 34.166374 -118.200889 110 3507ft 181kts
06-Jul-17 14:09 34.154920 -118.158116 111 3427ft 190kts
06-Jul-17 14:10 34.141689 -118.120955 116 3534ft 180kts
06-Jul-17 14:11 34.124146 -118.086273 127 3605ft 183kts
06-Jul-17 14:12 34.102014 -118.053545 133 3611ft 186kts
06-Jul-17 14:13 34.077049 -118.021702 148 3515ft 192kts
06-Jul-17 14:14 34.046770 -118.000080 151 3492ft 189kts
06-Jul-17 14:15 34.016613 -117.980033 152 3532ft 186kts
06-Jul-17 14:16 33.987824 -117.959998 148 3313ft 193kts
06-Jul-17 14:17 33.955971 -117.938814 152 2196ft 201kts
06-Jul-17 14:18 33.920219 -117.918645 158 1115ft 195kts
06-Jul-17 14:19 33.891535 -117.905746 160 1118ft 160kts
06-Jul-17 14:20 33.874272 -117.919906 272 935ft 146kts
06-Jul-17 14:21 33.876965 -117.948804 275 627ft 102kts
06-Jul-17 14:22 33.873892 -117.969932 259 223ft 81kts
06-Jul-17 14:23 33.871729 -117.979354 162 92ft 0kts
06-Jul-17 14:24 33.871034 -117.979172 165 92ft 10kts
06-Jul-17 14:25 33.871088 -117.980000 345 92ft 0kts
06-Jul-17 14:26 33.871088 -117.980000 345 92ft 0kts
06-Jul-17 14:27 33.871088 -117.980000 345 92ft 0kts
06-Jul-17 14:28 33.871088 -117.980000 345 92ft 0kts
06-Jul-17 14:29 33.871088 -117.980000 345 92ft 0kts
06-Jul-17 14:30 33.871088 -117.980000 345 92ft 0kts
06-Jul-17 14:31 33.871088 -117.980000 345 92ft 0kts
06-Jul-17 14:32 33.871088 -117.980000 345 92ft 0kts
06-Jul-17 14:33 33.871088 -117.980000 345 92ft 0kts
06-Jul-17 14:34 33.871088 -117.980000 345 92ft 0kts
06-Jul-17 14:35 33.871088 -117.980000 345 92ft 0kts
06-Jul-17 14:36 33.871088 -117.980000 345 92ft 0kts
06-Jul-17 14:37 33.871088 -117.980000 345 92ft 0kts

Navigation Log

Ident Type
Flight plan parsing failed, navigation log unavailable